Centerville, Georgia
Current Conditions -  °F | °C
As of 4:58 AM on Friday 28 Nov 2014 (Local Time) from KWRB Reporting Station
Clear Clear  
Wind Chill: 29°   Ceiling: Unl
Heat Index: 29°   Visibility: 10mi
Dew Point: 25°   Wind: 3mph
Humidity: 85%   Direction: 330°NNW
Pressure: 30.37"   Gusts: NA
Location:  32.63°N, 83.69°W
Report Text: KWRB 280958Z AUTO 33003KT 10SM CLR M02/M04 A3037 RMK AO2 SLP289 T10161039
Loading
Personal Weather Stations






























Interactive Weather Map New forecast layout! Learn more

10-Day Weather Forecast

Advertisements
Track Severe Weather on mobile